createdAt,value
2019-01-30T00:03:05.714Z,70.85
2019-01-30T00:08:09.004Z,70.76
2019-01-30T00:13:12.278Z,70.53
2019-01-30T00:18:15.474Z,70.42
2019-01-30T00:23:18.797Z,70.26
2019-01-30T00:28:22.018Z,70.60
2019-01-30T00:33:25.263Z,70.58
2019-01-30T00:38:28.567Z,70.32
2019-01-30T00:43:31.880Z,70.55
2019-01-30T00:48:35.269Z,70.49
2019-01-30T00:53:38.482Z,70.38
2019-01-30T00:58:41.678Z,70.32
2019-01-30T01:03:44.862Z,70.50
2019-01-30T01:08:48.146Z,70.12
2019-01-30T01:13:51.363Z,70.45
2019-01-30T01:18:54.566Z,70.12
2019-01-30T01:23:57.760Z,70.21
2019-01-30T01:29:00.940Z,70.59
2019-01-30T01:34:04.273Z,70.56
2019-01-30T01:39:08.659Z,70.25
2019-01-30T01:44:11.894Z,70.21
2019-01-30T01:49:15.089Z,69.69
2019-01-30T01:54:18.292Z,70.17
2019-01-30T01:59:21.564Z,69.93
2019-01-30T02:04:24.805Z,69.67
2019-01-30T02:09:28.114Z,69.97
2019-01-30T02:14:31.302Z,70.16
2019-01-30T02:19:34.516Z,69.82
2019-01-30T02:24:37.785Z,69.98
2019-01-30T02:29:41.042Z,70.33
2019-01-30T02:34:44.273Z,70.15
2019-01-30T02:39:47.653Z,69.40
2019-01-30T02:44:50.870Z,69.24
2019-01-30T02:49:54.186Z,70.03
2019-01-30T02:54:57.365Z,70.01
2019-01-30T03:00:00.545Z,69.66
2019-01-30T03:05:03.992Z,68.76
2019-01-30T03:10:09.652Z,69.04
2019-01-30T03:15:13.087Z,69.42
2019-01-30T03:20:18.954Z,68.81
2019-01-30T03:25:23.080Z,69.09
2019-01-30T03:30:27.946Z,69.96
2019-01-30T03:35:31.171Z,69.35
2019-01-30T03:40:34.358Z,69.16
2019-01-30T03:45:37.644Z,69.36
2019-01-30T03:50:40.833Z,69.86
2019-01-30T03:55:44.028Z,69.98
2019-01-30T04:00:47.249Z,69.67
2019-01-30T04:05:50.512Z,69.64
2019-01-30T04:10:53.718Z,69.31
2019-01-30T04:15:56.974Z,69.23
2019-01-30T04:21:00.160Z,69.32
2019-01-30T04:26:03.475Z,69.72
2019-01-30T04:31:06.709Z,70.00
2019-01-30T04:36:09.903Z,70.35
2019-01-30T04:41:13.235Z,70.08
2019-01-30T04:46:16.602Z,69.88
2019-01-30T04:51:19.742Z,69.65
2019-01-30T04:56:22.965Z,69.50
2019-01-30T05:01:26.173Z,69.64
2019-01-30T05:06:29.860Z,69.47
2019-01-30T05:11:33.050Z,69.37
2019-01-30T05:16:36.236Z,69.53
2019-01-30T05:21:39.457Z,69.00
2019-01-30T05:26:42.700Z,69.11
2019-01-30T05:31:45.971Z,69.09
2019-01-30T05:36:49.233Z,69.40
2019-01-30T05:41:52.437Z,69.61
2019-01-30T05:46:55.636Z,69.42
2019-01-30T05:51:58.853Z,69.41
2019-01-30T05:57:02.075Z,69.32
2019-01-30T06:02:11.789Z,69.12
2019-01-30T06:07:08.611Z,68.95
2019-01-30T06:12:11.806Z,68.66
2019-01-30T06:17:15.082Z,68.78
2019-01-30T06:22:18.339Z,68.88
2019-01-30T06:27:21.514Z,68.87
2019-01-30T06:32:24.751Z,69.04
2019-01-30T06:37:27.947Z,68.48
2019-01-30T06:42:31.194Z,69.18
2019-01-30T06:47:34.474Z,68.99
2019-01-30T06:52:37.675Z,69.05
2019-01-30T06:57:40.895Z,68.84
2019-01-30T07:02:44.215Z,68.65
2019-01-30T07:07:47.508Z,68.81
2019-01-30T07:12:50.882Z,68.48
2019-01-30T07:17:54.086Z,68.55
2019-01-30T07:22:57.291Z,68.52
2019-01-30T07:28:00.499Z,68.13
2019-01-30T07:33:03.743Z,68.67
2019-01-30T07:38:06.942Z,68.31
2019-01-30T07:43:10.155Z,68.52
2019-01-30T07:48:13.357Z,68.67
2019-01-30T07:53:16.576Z,68.73
2019-01-30T07:58:19.803Z,68.33
2019-01-30T08:03:23.066Z,68.12
2019-01-30T08:08:26.265Z,68.47
2019-01-30T08:13:29.474Z,68.64
2019-01-30T08:18:32.670Z,68.68
2019-01-30T08:23:36.222Z,68.19
2019-01-30T08:28:39.261Z,68.00
2019-01-30T08:33:42.508Z,68.33
2019-01-30T08:38:45.843Z,67.88
2019-01-30T08:43:49.157Z,66.45
2019-01-30T08:48:52.409Z,67.35
2019-01-30T08:53:55.767Z,66.81
2019-01-30T08:58:59.038Z,66.73
2019-01-30T09:04:02.403Z,66.21
2019-01-30T09:09:08.972Z,65.89
2019-01-30T09:14:12.504Z,65.73
2019-01-30T09:19:15.771Z,65.81
2019-01-30T09:24:19.030Z,64.98
2019-01-30T09:29:22.299Z,65.84
2019-01-30T09:34:25.571Z,65.64
2019-01-30T09:39:28.898Z,64.83
2019-01-30T09:44:32.405Z,64.64
2019-01-30T09:49:35.506Z,64.72
2019-01-30T09:54:38.914Z,64.96
2019-01-30T09:59:42.237Z,66.36
2019-01-30T10:04:45.550Z,64.92
2019-01-30T10:09:48.902Z,65.71
2019-01-30T10:14:52.407Z,65.92
2019-01-30T10:19:55.670Z,64.45
2019-01-30T10:24:58.982Z,65.03
2019-01-30T10:30:02.330Z,63.00
2019-01-30T10:35:05.659Z,62.75
2019-01-30T10:40:11.593Z,64.60
2019-01-30T10:45:15.024Z,64.37
2019-01-30T10:50:20.694Z,62.61
2019-01-30T10:55:25.451Z,63.07
2019-01-30T11:00:32.240Z,63.92
2019-01-30T11:05:35.502Z,63.75
2019-01-30T11:10:38.731Z,63.89
2019-01-30T11:15:42.112Z,62.34
2019-01-30T11:20:45.442Z,63.96
2019-01-30T11:25:49.443Z,63.18
2019-01-30T11:30:52.928Z,64.37
2019-01-30T11:36:00.340Z,63.25
2019-01-30T11:41:03.774Z,63.69
2019-01-30T11:46:07.173Z,63.21
2019-01-30T11:51:10.622Z,62.25
2019-01-30T11:56:13.833Z,61.56
2019-01-30T12:01:17.103Z,62.18
2019-01-30T12:06:20.390Z,62.10
2019-01-30T12:11:23.738Z,60.49
2019-01-30T12:16:28.357Z,61.63
2019-01-30T12:21:31.584Z,60.62
2019-01-30T12:26:34.787Z,61.21
2019-01-30T12:31:38.178Z,61.94
2019-01-30T12:36:41.410Z,60.93
2019-01-30T12:41:44.701Z,59.82
2019-01-30T12:46:47.992Z,59.29
2019-01-30T12:51:51.337Z,59.59
2019-01-30T12:56:54.631Z,58.70
2019-01-30T13:01:57.886Z,58.98
2019-01-30T13:07:04.029Z,58.51
2019-01-30T13:12:07.246Z,56.75
2019-01-30T13:17:10.503Z,57.47
2019-01-30T13:22:14.046Z,57.55
2019-01-30T13:27:17.380Z,58.11
2019-01-30T13:32:20.957Z,57.24
2019-01-30T13:37:24.295Z,56.45
2019-01-30T13:42:27.635Z,57.66
2019-01-30T13:47:32.738Z,56.55
2019-01-30T13:52:34.522Z,55.84
2019-01-30T13:57:37.990Z,54.78
2019-01-30T14:02:41.346Z,55.03
2019-01-30T14:07:44.644Z,53.83
2019-01-30T14:12:47.977Z,53.64
2019-01-30T14:17:51.410Z,52.73
2019-01-30T14:22:54.781Z,53.08
2019-01-30T14:27:58.104Z,53.28
2019-01-30T14:33:01.479Z,53.82
2019-01-30T14:38:04.844Z,55.25
2019-01-30T14:43:08.208Z,55.73
2019-01-30T14:48:11.686Z,55.71
2019-01-30T14:53:15.076Z,56.38
2019-01-30T14:58:18.487Z,56.53
2019-01-30T15:03:21.867Z,56.99
2019-01-30T15:08:25.550Z,57.27
2019-01-30T15:13:28.956Z,57.94
2019-01-30T15:18:32.306Z,57.64
2019-01-30T15:23:35.708Z,56.66
2019-01-30T15:28:39.122Z,57.43
2019-01-30T15:33:42.486Z,57.10
2019-01-30T15:38:45.779Z,56.52
2019-01-30T15:43:49.161Z,57.41
2019-01-30T15:48:52.604Z,58.06
2019-01-30T15:53:55.911Z,58.61
2019-01-30T15:58:59.246Z,59.06
2019-01-30T16:04:05.940Z,59.29
2019-01-30T16:09:08.025Z,59.24
2019-01-30T16:14:12.683Z,59.70
2019-01-30T16:19:16.066Z,59.61
2019-01-30T16:24:19.366Z,60.27
2019-01-30T16:29:22.775Z,60.68
2019-01-30T16:34:26.082Z,60.45
2019-01-30T16:39:29.410Z,60.38
2019-01-30T16:44:32.827Z,60.77
2019-01-30T16:49:36.208Z,61.08
2019-01-30T16:54:39.578Z,61.44
2019-01-30T16:59:42.886Z,61.77
2019-01-30T17:04:46.245Z,62.08
2019-01-30T17:09:49.566Z,62.01
2019-01-30T17:14:52.874Z,61.73
2019-01-30T17:19:56.175Z,61.96
2019-01-30T17:24:59.489Z,61.91
2019-01-30T17:30:02.892Z,62.02
2019-01-30T17:35:06.278Z,61.76
2019-01-30T17:40:13.098Z,61.76
2019-01-30T17:45:16.563Z,61.88
2019-01-30T17:50:21.685Z,61.85
2019-01-30T17:55:26.206Z,61.81
2019-01-30T18:00:33.246Z,62.04
2019-01-30T18:05:36.566Z,62.20
2019-01-30T18:10:39.902Z,62.01
2019-01-30T18:15:43.337Z,61.90
2019-01-30T18:20:46.722Z,60.93
2019-01-30T18:25:50.139Z,60.93
2019-01-30T18:30:53.566Z,61.19
2019-01-30T18:35:59.238Z,60.78
2019-01-30T18:41:02.621Z,60.87
2019-01-30T18:46:06.030Z,60.89
2019-01-30T18:51:09.470Z,61.37
2019-01-30T18:56:12.842Z,61.27
2019-01-30T19:01:19.279Z,61.42
2019-01-30T19:06:22.639Z,60.64
2019-01-30T19:11:26.965Z,60.90
2019-01-30T19:16:30.274Z,60.86
2019-01-30T19:21:34.238Z,60.86
2019-01-30T19:26:38.650Z,61.55
2019-01-30T19:31:42.062Z,61.62
2019-01-30T19:36:45.482Z,62.05
2019-01-30T19:41:50.362Z,61.88
2019-01-30T19:46:52.278Z,62.16
2019-01-30T19:51:55.687Z,62.40
2019-01-30T19:56:59.094Z,62.28
2019-01-30T20:02:02.415Z,62.41
2019-01-30T20:07:14.454Z,61.76
2019-01-30T20:12:09.226Z,61.81
2019-01-30T20:17:12.557Z,62.49
2019-01-30T20:22:15.951Z,62.15
2019-01-30T20:27:19.977Z,62.41
2019-01-30T20:32:23.283Z,62.03
2019-01-30T20:37:26.673Z,62.64
2019-01-30T20:42:29.972Z,62.60
2019-01-30T20:47:33.262Z,62.88
2019-01-30T20:52:36.609Z,62.58
2019-01-30T20:57:42.773Z,62.54
2019-01-30T21:02:46.110Z,63.09
2019-01-30T21:07:49.503Z,63.42
2019-01-30T21:12:52.804Z,63.41
2019-01-30T21:17:56.162Z,62.76
2019-01-30T21:22:59.532Z,61.67
2019-01-30T21:28:02.980Z,62.08
2019-01-30T21:33:06.354Z,61.13
2019-01-30T21:38:09.791Z,60.56
2019-01-30T21:43:13.157Z,60.49
2019-01-30T21:48:16.555Z,61.21
2019-01-30T21:53:19.866Z,61.43
2019-01-30T21:58:23.205Z,61.71
2019-01-30T22:03:26.466Z,61.72
2019-01-30T22:08:29.791Z,61.43
2019-01-30T22:13:33.070Z,62.36
2019-01-30T22:18:36.364Z,62.55
2019-01-30T22:23:39.672Z,62.28
2019-01-30T22:28:42.979Z,62.00
2019-01-30T22:33:46.254Z,61.97
2019-01-30T22:38:49.461Z,61.86
2019-01-30T22:43:52.671Z,62.53
2019-01-30T22:48:55.865Z,62.95
2019-01-30T22:53:59.097Z,62.62
2019-01-30T22:59:02.306Z,62.61
2019-01-30T23:04:13.863Z,62.83
2019-01-30T23:10:38.802Z,63.34
2019-01-30T23:15:50.401Z,63.44
2019-01-30T23:20:57.645Z,63.04
2019-01-30T23:26:07.755Z,63.79
2019-01-30T23:31:19.734Z,63.53
2019-01-30T23:38:38.221Z,63.31
2019-01-30T23:44:02.011Z,64.09
2019-01-30T23:49:16.226Z,64.32
2019-01-30T23:54:31.551Z,63.56
2019-01-30T23:59:57.449Z,65.11
